createdAt,value
2019-03-30T00:01:09.683Z,15.40
2019-03-30T00:03:38.211Z,14.67
2019-03-30T00:06:06.674Z,16.00
2019-03-30T00:08:35.155Z,15.23
2019-03-30T00:11:03.686Z,14.07
2019-03-30T00:13:32.197Z,14.67
2019-03-30T00:16:00.796Z,13.93
2019-03-30T00:18:29.243Z,14.00
2019-03-30T00:20:57.722Z,14.67
2019-03-30T00:23:26.163Z,4.93
2019-03-30T00:25:54.646Z,3.93
2019-03-30T00:28:23.098Z,4.30
2019-03-30T00:30:52.365Z,10.93
2019-03-30T00:33:20.809Z,13.90
2019-03-30T00:35:49.269Z,13.73
2019-03-30T00:38:17.935Z,14.13
2019-03-30T00:40:46.422Z,13.50
2019-03-30T00:43:14.899Z,5.10
2019-03-30T00:45:43.499Z,13.60
2019-03-30T00:48:11.968Z,12.57
2019-03-30T00:50:40.444Z,13.10
2019-03-30T00:53:08.955Z,13.67
2019-03-30T00:55:37.678Z,13.47
2019-03-30T00:58:06.118Z,13.30
2019-03-30T01:00:34.890Z,12.53
2019-03-30T01:03:03.424Z,13.33
2019-03-30T01:05:31.896Z,13.20
2019-03-30T01:08:00.345Z,12.70
2019-03-30T01:10:48.157Z,13.13
2019-03-30T01:13:16.595Z,13.07
2019-03-30T01:15:45.147Z,14.80
2019-03-30T01:18:13.581Z,14.17
2019-03-30T01:20:42.059Z,13.87
2019-03-30T01:23:10.667Z,14.20
2019-03-30T01:25:39.142Z,14.30
2019-03-30T01:28:07.609Z,14.40
2019-03-30T01:30:36.225Z,13.80
2019-03-30T01:33:04.694Z,13.00
2019-03-30T01:35:33.165Z,14.33
2019-03-30T01:38:01.631Z,14.50
2019-03-30T01:40:30.119Z,14.17
2019-03-30T01:42:58.631Z,13.00
2019-03-30T01:45:27.095Z,13.10
2019-03-30T01:47:55.562Z,13.33
2019-03-30T01:50:24.021Z,14.50
2019-03-30T01:52:52.459Z,13.77
2019-03-30T01:55:20.998Z,14.20
2019-03-30T01:57:49.955Z,13.70
2019-03-30T02:00:19.514Z,13.63
2019-03-30T02:02:47.966Z,14.27
2019-03-30T02:05:16.697Z,13.10
2019-03-30T02:07:45.152Z,13.57
2019-03-30T02:10:15.518Z,13.80
2019-03-30T02:12:43.967Z,14.30
2019-03-30T02:15:12.783Z,15.87
2019-03-30T02:17:41.328Z,15.03
2019-03-30T02:20:12.945Z,14.33
2019-03-30T02:22:41.400Z,16.20
2019-03-30T02:25:10.046Z,15.17
2019-03-30T02:27:38.575Z,15.83
2019-03-30T02:30:07.489Z,15.83
2019-03-30T02:32:36.004Z,16.17
2019-03-30T02:35:06.723Z,14.47
2019-03-30T02:37:35.173Z,15.50
2019-03-30T02:40:04.794Z,15.10
2019-03-30T02:42:33.363Z,14.30
2019-03-30T02:45:01.901Z,14.83
2019-03-30T02:47:30.419Z,14.57
2019-03-30T02:49:58.996Z,15.47
2019-03-30T02:52:27.539Z,14.17
2019-03-30T02:54:56.021Z,14.90
2019-03-30T02:57:24.486Z,15.80
2019-03-30T02:59:52.931Z,15.37
2019-03-30T03:02:21.414Z,14.93
2019-03-30T03:04:49.984Z,14.80
2019-03-30T03:07:18.452Z,15.30
2019-03-30T03:09:46.900Z,15.33
2019-03-30T03:12:15.377Z,13.27
2019-03-30T03:14:43.897Z,14.80
2019-03-30T03:17:12.440Z,15.07
2019-03-30T03:19:40.939Z,15.63
2019-03-30T03:22:09.447Z,15.57
2019-03-30T03:24:38.020Z,15.60
2019-03-30T03:27:06.500Z,17.30
2019-03-30T03:29:34.997Z,15.47
2019-03-30T03:32:03.576Z,16.20
2019-03-30T03:34:32.215Z,15.93
2019-03-30T03:37:00.734Z,16.03
2019-03-30T03:39:29.196Z,15.87
2019-03-30T03:41:57.760Z,16.10
2019-03-30T03:44:26.284Z,4.10
2019-03-30T03:46:54.853Z,16.03
2019-03-30T03:49:23.333Z,16.03
2019-03-30T03:51:52.095Z,16.73
2019-03-30T03:54:40.537Z,14.90
2019-03-30T03:57:11.895Z,15.63
2019-03-30T03:59:41.159Z,15.73
2019-03-30T04:02:30.551Z,15.93
2019-03-30T04:05:01.024Z,15.67
2019-03-30T04:07:32.582Z,16.17
2019-03-30T04:10:02.815Z,16.37
2019-03-30T04:12:34.481Z,16.20
2019-03-30T04:15:05.599Z,15.33
2019-03-30T04:17:34.264Z,15.47
2019-03-30T04:20:02.792Z,15.33
2019-03-30T04:22:31.387Z,16.73
2019-03-30T04:24:59.844Z,16.93
2019-03-30T04:27:28.388Z,17.80
2019-03-30T04:29:56.876Z,17.97
2019-03-30T04:32:25.348Z,17.17
2019-03-30T04:34:54.707Z,17.40
2019-03-30T04:37:23.176Z,16.47
2019-03-30T04:39:51.661Z,17.87
2019-03-30T04:42:20.212Z,17.93
2019-03-30T04:44:48.669Z,16.20
2019-03-30T04:47:17.243Z,17.40
2019-03-30T04:49:45.719Z,16.13
2019-03-30T04:52:14.283Z,17.67
2019-03-30T04:54:42.863Z,16.57
2019-03-30T04:57:11.338Z,18.03
2019-03-30T04:59:39.786Z,18.83
2019-03-30T05:02:08.298Z,16.40
2019-03-30T05:04:36.764Z,17.57
2019-03-30T05:07:05.300Z,16.80
2019-03-30T05:09:33.810Z,19.17
2019-03-30T05:12:02.292Z,18.27
2019-03-30T05:14:30.809Z,18.70
2019-03-30T05:16:59.343Z,18.43
2019-03-30T05:19:27.791Z,17.83
2019-03-30T05:21:56.266Z,16.10
2019-03-30T05:24:24.712Z,17.73
2019-03-30T05:26:53.295Z,16.70
2019-03-30T05:29:21.933Z,14.97
2019-03-30T05:31:53.035Z,17.40
2019-03-30T05:34:21.490Z,17.33
2019-03-30T05:36:49.951Z,15.30
2019-03-30T05:39:18.432Z,16.73
2019-03-30T05:41:46.879Z,16.03
2019-03-30T05:44:15.357Z,14.77
2019-03-30T05:46:43.880Z,14.87
2019-03-30T05:49:12.359Z,16.43
2019-03-30T05:51:40.818Z,17.20
2019-03-30T05:54:09.343Z,18.10
2019-03-30T05:56:37.775Z,17.07
2019-03-30T05:59:06.245Z,16.87
2019-03-30T06:01:34.697Z,18.17
2019-03-30T06:04:03.151Z,15.83
2019-03-30T06:06:32.010Z,19.07
2019-03-30T06:09:00.623Z,18.17
2019-03-30T06:11:29.110Z,17.80
2019-03-30T06:13:57.579Z,18.30
2019-03-30T06:16:26.017Z,17.67
2019-03-30T06:18:54.473Z,17.60
2019-03-30T06:21:22.903Z,16.73
2019-03-30T06:23:51.361Z,18.30
2019-03-30T06:26:19.968Z,18.80
2019-03-30T06:28:48.656Z,18.50
2019-03-30T06:31:17.119Z,19.20
2019-03-30T06:33:45.634Z,18.13
2019-03-30T06:36:14.091Z,18.30
2019-03-30T06:38:42.536Z,15.30
2019-03-30T06:41:11.052Z,16.90
2019-03-30T06:43:39.490Z,16.40
2019-03-30T06:46:07.960Z,18.77
2019-03-30T06:48:36.401Z,17.47
2019-03-30T06:51:04.876Z,17.73
2019-03-30T06:53:33.339Z,18.20
2019-03-30T06:56:01.868Z,16.53
2019-03-30T06:58:30.796Z,17.63
2019-03-30T07:00:59.695Z,17.17
2019-03-30T07:03:28.387Z,16.73
2019-03-30T07:05:58.047Z,16.97
2019-03-30T07:08:28.528Z,16.40
2019-03-30T07:10:58.611Z,17.73
2019-03-30T07:13:28.497Z,17.33
2019-03-30T07:15:59.416Z,17.50
2019-03-30T07:18:28.404Z,17.40
2019-03-30T07:20:56.871Z,17.20
2019-03-30T07:23:26.334Z,17.47
2019-03-30T07:25:55.370Z,16.87
2019-03-30T07:28:23.977Z,16.20
2019-03-30T07:30:52.449Z,18.27
2019-03-30T07:33:20.899Z,17.60
2019-03-30T07:35:49.449Z,17.33
2019-03-30T07:38:17.955Z,18.43
2019-03-30T07:40:46.409Z,17.60
2019-03-30T07:43:14.855Z,17.60
2019-03-30T07:45:43.379Z,18.03
2019-03-30T07:48:11.818Z,17.00
2019-03-30T07:50:40.259Z,19.03
2019-03-30T07:53:09.700Z,18.60
2019-03-30T07:55:38.316Z,16.67
2019-03-30T07:58:06.823Z,17.10
2019-03-30T08:00:35.383Z,17.23
2019-03-30T08:03:04.144Z,16.20
2019-03-30T08:05:32.637Z,16.37
2019-03-30T08:08:01.113Z,17.23
2019-03-30T08:10:29.578Z,18.37
2019-03-30T08:12:58.264Z,17.43
2019-03-30T08:15:26.784Z,18.00
2019-03-30T08:17:55.259Z,15.93
2019-03-30T08:20:23.770Z,16.23
2019-03-30T08:22:52.539Z,17.40
2019-03-30T08:25:20.986Z,16.37
2019-03-30T08:27:49.443Z,17.63
2019-03-30T08:30:17.962Z,17.27
2019-03-30T08:32:46.439Z,18.13
2019-03-30T08:35:14.883Z,17.43
2019-03-30T08:37:43.375Z,18.57
2019-03-30T08:40:12.182Z,17.53
2019-03-30T08:42:40.716Z,18.90
2019-03-30T08:45:09.534Z,19.67
2019-03-30T08:47:38.002Z,18.70
2019-03-30T08:50:08.876Z,17.23
2019-03-30T08:52:37.331Z,18.00
2019-03-30T08:55:08.023Z,18.10
2019-03-30T08:57:36.844Z,17.83
2019-03-30T09:00:06.746Z,17.30
2019-03-30T09:02:35.310Z,17.03
2019-03-30T09:05:05.762Z,17.40
2019-03-30T09:07:34.214Z,17.93
2019-03-30T09:10:03.135Z,17.63
2019-03-30T09:12:31.579Z,18.70
2019-03-30T09:15:00.278Z,18.53
2019-03-30T09:17:28.987Z,19.10
2019-03-30T09:19:57.451Z,19.03
2019-03-30T09:22:25.895Z,19.53
2019-03-30T09:24:55.682Z,18.23
2019-03-30T09:27:24.131Z,16.93
2019-03-30T09:29:52.599Z,19.37
2019-03-30T09:32:21.049Z,18.47
2019-03-30T09:34:49.531Z,19.57
2019-03-30T09:37:18.056Z,17.13
2019-03-30T09:39:46.544Z,16.40
2019-03-30T09:42:14.998Z,18.33
2019-03-30T09:44:43.483Z,18.43
2019-03-30T09:47:11.930Z,19.80
2019-03-30T09:49:40.494Z,18.83
2019-03-30T09:52:08.946Z,19.70
2019-03-30T09:54:37.405Z,19.33
2019-03-30T09:57:05.883Z,17.23
2019-03-30T09:59:34.463Z,17.33
2019-03-30T10:02:02.904Z,18.33
2019-03-30T10:04:31.384Z,17.53
2019-03-30T10:06:59.834Z,16.47
2019-03-30T10:09:28.299Z,16.77
2019-03-30T10:11:57.292Z,18.93
2019-03-30T10:14:25.759Z,19.03
2019-03-30T10:16:54.204Z,19.47
2019-03-30T10:19:22.687Z,17.23
2019-03-30T10:21:51.124Z,17.37
2019-03-30T10:24:19.745Z,17.40
2019-03-30T10:26:48.215Z,16.90
2019-03-30T10:29:16.679Z,15.77
2019-03-30T10:31:45.130Z,15.73
2019-03-30T10:34:13.610Z,16.87
2019-03-30T10:36:42.047Z,17.87
2019-03-30T10:39:10.512Z,16.73
2019-03-30T10:41:38.968Z,17.30
2019-03-30T10:44:07.417Z,19.43
2019-03-30T10:46:35.961Z,17.17
2019-03-30T10:49:04.475Z,16.50
2019-03-30T10:51:32.938Z,15.10
2019-03-30T10:54:01.484Z,17.10
2019-03-30T10:56:29.951Z,15.70
2019-03-30T10:58:58.398Z,17.57
2019-03-30T11:01:26.868Z,16.20
2019-03-30T11:03:55.308Z,17.27
2019-03-30T11:06:23.783Z,15.77
2019-03-30T11:08:52.255Z,15.90
2019-03-30T11:11:20.723Z,16.37
2019-03-30T11:13:49.241Z,15.37
2019-03-30T11:16:17.716Z,16.40
2019-03-30T11:18:46.164Z,16.77
2019-03-30T11:21:14.634Z,16.30
2019-03-30T11:23:43.084Z,14.33
2019-03-30T11:26:11.598Z,16.03
2019-03-30T11:28:40.055Z,17.47
2019-03-30T11:31:08.612Z,17.50
2019-03-30T11:33:37.136Z,15.87
2019-03-30T11:36:05.657Z,16.23
2019-03-30T11:38:34.096Z,16.13
2019-03-30T11:41:02.834Z,15.93
2019-03-30T11:43:31.276Z,17.07
2019-03-30T11:45:59.726Z,16.10
2019-03-30T11:48:28.180Z,17.63
2019-03-30T11:50:56.648Z,15.60
2019-03-30T11:53:25.104Z,16.90
2019-03-30T11:55:53.583Z,16.03
2019-03-30T11:58:22.093Z,15.13
2019-03-30T12:00:50.560Z,15.90
2019-03-30T12:03:19.006Z,15.30
2019-03-30T12:05:47.475Z,15.70
2019-03-30T12:08:15.927Z,14.63
2019-03-30T12:10:44.386Z,13.70
2019-03-30T12:13:12.839Z,15.57
2019-03-30T12:15:41.313Z,14.37
2019-03-30T12:18:09.827Z,14.57
2019-03-30T12:20:38.290Z,15.63
2019-03-30T12:23:06.739Z,13.27
2019-03-30T12:25:36.261Z,17.33
2019-03-30T12:28:04.957Z,14.73
2019-03-30T12:30:33.499Z,13.67
2019-03-30T12:33:01.959Z,14.53
2019-03-30T12:35:31.004Z,14.37
2019-03-30T12:37:59.454Z,13.63
2019-03-30T12:40:27.906Z,13.33
2019-03-30T12:42:56.348Z,13.10
2019-03-30T12:45:24.898Z,12.70
2019-03-30T12:47:53.327Z,11.80
2019-03-30T12:50:21.796Z,10.17
2019-03-30T12:52:50.240Z,9.67
2019-03-30T12:55:18.783Z,12.03
2019-03-30T12:57:47.319Z,9.13
2019-03-30T13:00:16.190Z,7.73
2019-03-30T13:02:44.655Z,7.63
2019-03-30T13:05:13.165Z,7.97
2019-03-30T13:07:41.631Z,8.00
2019-03-30T13:10:10.280Z,8.37
2019-03-30T13:12:38.755Z,9.70
2019-03-30T13:15:08.015Z,9.97
2019-03-30T13:17:36.489Z,10.80
2019-03-30T13:20:06.370Z,11.23
2019-03-30T13:22:34.883Z,10.83
2019-03-30T13:25:03.800Z,9.43
2019-03-30T13:27:32.404Z,8.93
2019-03-30T13:30:00.866Z,12.53
2019-03-30T13:32:29.329Z,12.50
2019-03-30T13:34:57.764Z,11.77
2019-03-30T13:37:26.243Z,11.13
2019-03-30T13:39:54.749Z,10.30
2019-03-30T13:42:23.255Z,10.93
2019-03-30T13:44:51.732Z,10.57
2019-03-30T13:47:20.365Z,11.03
2019-03-30T13:49:48.834Z,12.10
2019-03-30T13:52:17.325Z,12.53
2019-03-30T13:54:45.763Z,9.33
2019-03-30T13:57:14.231Z,11.20
2019-03-30T13:59:42.709Z,9.93
2019-03-30T14:02:11.171Z,9.63
2019-03-30T14:04:39.616Z,13.50
2019-03-30T14:07:08.098Z,11.83
2019-03-30T14:09:36.609Z,10.57
2019-03-30T14:12:05.131Z,9.80
2019-03-30T14:14:33.573Z,8.43
2019-03-30T14:17:02.036Z,9.77
2019-03-30T14:19:30.467Z,9.07
2019-03-30T14:21:58.915Z,9.07
2019-03-30T14:24:27.351Z,8.67
2019-03-30T14:26:55.803Z,8.67
2019-03-30T14:29:24.237Z,8.90
2019-03-30T14:31:52.736Z,8.17
2019-03-30T14:34:21.252Z,8.40
2019-03-30T14:36:50.151Z,9.43
2019-03-30T14:39:18.725Z,8.13
2019-03-30T14:41:47.180Z,8.90
2019-03-30T14:44:15.619Z,8.77
2019-03-30T14:46:44.090Z,8.10
2019-03-30T14:49:12.539Z,9.53
2019-03-30T14:51:41.001Z,7.60
2019-03-30T14:54:09.427Z,9.10
2019-03-30T14:56:45.398Z,9.47
2019-03-30T14:59:10.501Z,8.23
2019-03-30T15:01:38.259Z,7.27
2019-03-30T15:04:06.698Z,8.27
2019-03-30T15:06:35.158Z,8.63
2019-03-30T15:09:04.739Z,10.63
2019-03-30T15:11:33.203Z,7.97
2019-03-30T15:14:01.639Z,9.07
2019-03-30T15:16:30.095Z,9.17
2019-03-30T15:18:58.545Z,8.77
2019-03-30T15:21:26.984Z,9.13
2019-03-30T15:23:55.438Z,8.30
2019-03-30T15:26:23.888Z,9.10
2019-03-30T15:28:52.347Z,8.60
2019-03-30T15:31:20.808Z,9.33
2019-03-30T15:33:49.276Z,9.37
2019-03-30T15:36:17.737Z,7.80
2019-03-30T15:38:46.223Z,8.33
2019-03-30T15:41:14.667Z,7.47
2019-03-30T15:43:43.135Z,7.30
2019-03-30T15:46:14.295Z,7.73
2019-03-30T15:48:41.813Z,7.80
2019-03-30T15:51:10.256Z,8.37
2019-03-30T15:53:38.716Z,8.63
2019-03-30T15:56:07.232Z,7.93
2019-03-30T15:58:35.866Z,9.10
2019-03-30T16:01:04.433Z,9.07
2019-03-30T16:03:32.923Z,8.33
2019-03-30T16:06:01.402Z,7.87
2019-03-30T16:08:29.989Z,7.83
2019-03-30T16:10:58.429Z,8.27
2019-03-30T16:13:26.882Z,8.50
2019-03-30T16:15:55.323Z,8.63
2019-03-30T16:18:23.866Z,7.87
2019-03-30T16:20:52.377Z,8.37
2019-03-30T16:23:20.887Z,8.10
2019-03-30T16:25:49.357Z,7.27
2019-03-30T16:28:17.837Z,8.13
2019-03-30T16:30:46.303Z,8.63
2019-03-30T16:33:14.740Z,8.50
2019-03-30T16:35:43.190Z,9.27
2019-03-30T16:38:11.667Z,8.23
2019-03-30T16:40:40.124Z,8.67
2019-03-30T16:43:08.738Z,8.23
2019-03-30T16:45:37.242Z,8.50
2019-03-30T16:48:06.008Z,7.97
2019-03-30T16:50:34.791Z,7.93
2019-03-30T16:53:03.364Z,8.63
2019-03-30T16:55:31.826Z,8.63
2019-03-30T16:58:00.412Z,7.57
2019-03-30T17:00:33.267Z,8.57
2019-03-30T17:03:03.944Z,9.20
2019-03-30T17:05:32.419Z,7.20
2019-03-30T17:08:00.919Z,7.87
2019-03-30T17:10:29.376Z,8.47
2019-03-30T17:12:57.940Z,7.43
2019-03-30T17:15:26.494Z,7.57
2019-03-30T17:17:54.942Z,8.63
2019-03-30T17:20:23.545Z,7.37
2019-03-30T17:22:52.002Z,7.70
2019-03-30T17:25:20.524Z,9.23
2019-03-30T17:27:58.264Z,8.43
2019-03-30T17:30:19.131Z,9.33
2019-03-30T17:32:47.912Z,7.57
2019-03-30T17:35:16.411Z,7.60
2019-03-30T17:37:44.879Z,7.97
2019-03-30T17:40:13.382Z,8.43
2019-03-30T17:42:41.943Z,9.23
2019-03-30T17:45:11.320Z,9.00
2019-03-30T17:47:39.843Z,8.80
2019-03-30T17:50:08.932Z,9.37
2019-03-30T17:52:37.493Z,8.30
2019-03-30T17:55:06.467Z,8.33
2019-03-30T17:57:34.933Z,7.83
2019-03-30T18:00:07.879Z,9.27
2019-03-30T18:02:35.244Z,10.13
2019-03-30T18:05:04.266Z,10.63
2019-03-30T18:07:32.761Z,11.07
2019-03-30T18:10:03.471Z,10.20
2019-03-30T18:12:32.308Z,11.33
2019-03-30T18:15:00.747Z,10.97
2019-03-30T18:17:29.280Z,10.50
2019-03-30T18:19:57.746Z,11.60
2019-03-30T18:22:26.557Z,10.90
2019-03-30T18:24:55.093Z,10.53
2019-03-30T18:27:23.740Z,10.97
2019-03-30T18:29:52.175Z,11.77
2019-03-30T18:32:20.811Z,10.50
2019-03-30T18:34:50.324Z,9.90
2019-03-30T18:37:18.976Z,11.30
2019-03-30T18:39:47.438Z,10.40
2019-03-30T18:42:15.896Z,10.93
2019-03-30T18:44:44.402Z,9.97
2019-03-30T18:47:13.047Z,11.70
2019-03-30T18:49:42.700Z,11.43
2019-03-30T18:52:11.397Z,11.40
2019-03-30T18:54:41.776Z,12.57
2019-03-30T18:57:10.260Z,12.23
2019-03-30T18:59:38.697Z,12.13
2019-03-30T19:02:07.153Z,12.57
2019-03-30T19:04:35.685Z,11.30
2019-03-30T19:07:04.147Z,11.93
2019-03-30T19:09:32.716Z,11.77
2019-03-30T19:12:01.156Z,15.90
2019-03-30T19:14:29.616Z,17.47
2019-03-30T19:16:58.066Z,17.20
2019-03-30T19:19:26.532Z,17.13
2019-03-30T19:21:55.063Z,15.00
2019-03-30T19:24:23.607Z,14.73
2019-03-30T19:26:52.071Z,16.73
2019-03-30T19:29:20.519Z,15.23
2019-03-30T19:31:48.975Z,14.03
2019-03-30T19:34:17.505Z,16.43
2019-03-30T19:36:46.034Z,15.40
2019-03-30T19:39:14.883Z,16.40
2019-03-30T19:41:43.355Z,15.00
2019-03-30T19:44:11.853Z,14.07
2019-03-30T19:46:40.306Z,13.13
2019-03-30T19:49:08.837Z,12.60
2019-03-30T19:51:37.358Z,12.47
2019-03-30T19:54:05.848Z,13.37
2019-03-30T19:56:34.283Z,12.37
2019-03-30T19:59:10.683Z,13.10
2019-03-30T20:01:33.252Z,10.70
2019-03-30T20:04:01.727Z,10.33
2019-03-30T20:06:34.130Z,14.83
2019-03-30T20:09:07.377Z,14.97
2019-03-30T20:11:36.018Z,11.90
2019-03-30T20:14:04.731Z,11.30
2019-03-30T20:16:33.341Z,11.57
2019-03-30T20:19:11.860Z,13.13
2019-03-30T20:21:35.879Z,14.07
2019-03-30T20:24:04.484Z,14.27
2019-03-30T20:26:32.991Z,16.50
2019-03-30T20:29:01.495Z,16.30
2019-03-30T20:31:30.059Z,13.67
2019-03-30T20:33:58.827Z,11.90
2019-03-30T20:36:28.821Z,12.97
2019-03-30T20:38:57.265Z,11.67
2019-03-30T20:41:25.727Z,11.20
2019-03-30T20:43:54.190Z,11.30
2019-03-30T20:46:22.650Z,10.37
2019-03-30T20:48:51.173Z,10.47
2019-03-30T20:51:19.707Z,9.47
2019-03-30T20:53:48.154Z,9.83
2019-03-30T20:56:16.723Z,10.30
2019-03-30T20:58:45.158Z,9.63
2019-03-30T21:01:13.680Z,9.43
2019-03-30T21:03:42.204Z,10.20
2019-03-30T21:06:10.655Z,10.33
2019-03-30T21:08:39.161Z,10.27
2019-03-30T21:11:07.687Z,9.70
2019-03-30T21:13:36.127Z,10.17
2019-03-30T21:16:04.762Z,10.07
2019-03-30T21:18:33.234Z,10.23
2019-03-30T21:21:01.775Z,11.53
2019-03-30T21:23:30.215Z,10.43
2019-03-30T21:25:58.681Z,9.47
2019-03-30T21:28:27.114Z,10.63
2019-03-30T21:30:55.579Z,9.67
2019-03-30T21:33:24.035Z,11.77
2019-03-30T21:35:52.851Z,11.03
2019-03-30T21:38:21.356Z,10.63
2019-03-30T21:40:49.827Z,11.77
2019-03-30T21:43:19.843Z,11.57
2019-03-30T21:45:48.567Z,11.67
2019-03-30T21:48:17.026Z,10.77
2019-03-30T21:50:45.507Z,10.50
2019-03-30T21:53:13.976Z,10.17
2019-03-30T21:55:42.410Z,10.97
2019-03-30T21:58:10.962Z,9.57
2019-03-30T22:00:40.351Z,10.33
2019-03-30T22:03:08.958Z,10.07
2019-03-30T22:05:37.474Z,10.47
2019-03-30T22:08:06.745Z,10.97
2019-03-30T22:10:35.261Z,9.93
2019-03-30T22:13:04.567Z,9.67
2019-03-30T22:15:33.063Z,9.77
2019-03-30T22:18:01.546Z,9.23
2019-03-30T22:20:30.039Z,9.83
2019-03-30T22:22:58.529Z,8.37
2019-03-30T22:25:27.028Z,8.10
2019-03-30T22:27:55.479Z,9.30
2019-03-30T22:30:25.322Z,9.20
2019-03-30T22:32:54.072Z,9.53
2019-03-30T22:35:22.518Z,8.77
2019-03-30T22:37:50.974Z,8.47
2019-03-30T22:40:19.413Z,9.13
2019-03-30T22:42:47.916Z,9.07
2019-03-30T22:45:16.508Z,9.60
2019-03-30T22:47:44.969Z,9.33
2019-03-30T22:50:13.673Z,9.20
2019-03-30T22:52:42.201Z,9.53
2019-03-30T22:55:11.008Z,9.07
2019-03-30T22:57:39.524Z,9.03
2019-03-30T23:00:09.714Z,9.57
2019-03-30T23:02:38.224Z,10.10
2019-03-30T23:05:06.836Z,9.90
2019-03-30T23:07:35.264Z,9.17
2019-03-30T23:10:05.756Z,9.27
2019-03-30T23:12:34.203Z,9.67
2019-03-30T23:15:02.671Z,9.20
2019-03-30T23:17:31.131Z,9.80
2019-03-30T23:19:59.605Z,9.57
2019-03-30T23:22:28.063Z,9.73
2019-03-30T23:24:56.528Z,8.97
2019-03-30T23:27:24.987Z,9.07
2019-03-30T23:29:53.522Z,8.80
2019-03-30T23:32:21.955Z,9.47
2019-03-30T23:34:50.418Z,9.50
2019-03-30T23:37:18.862Z,10.03
2019-03-30T23:39:47.342Z,10.27
2019-03-30T23:42:15.839Z,9.70
2019-03-30T23:44:44.307Z,9.90
2019-03-30T23:47:12.743Z,9.43
2019-03-30T23:49:41.283Z,9.43
2019-03-30T23:52:09.720Z,9.97
2019-03-30T23:54:38.278Z,10.13
2019-03-30T23:57:06.795Z,9.87
2019-03-30T23:59:35.240Z,10.03
